メインページ
METAR-TAF:

METAR-TAF

空港 :

デトロイト・メトロポリタン・ウェイン・カウンティ空港

デトロイト, ミシガン州, アメリカ合衆国

緯度: 42-13-53N, 経度: 083-19-51W, 海抜: 194m

現時点の気象観測

当レポートは10分前の13:53(UTC)に作成
西の風 11kt
気温 -1°C
湿度 74%
気圧 1015 hPa
視程: 12.9km
高度1500ftの雲はほとんどない
高度2500ftの雲は散在している
高度3500ftの曇り
小雪

METAR: KDTW 151353Z 26011KT 8SM -SN FEW015 SCT025 OVC035 M01/M05 A2997 RMK AO2 SLP156 P0000 T10061050

時間: 09:03 (14:03 UTC)

予報

当レポートは12分前の13:51(UTC)に作成
予報は15日の 14時(UTC)から 16日の 18時(UTC)まで有効
西の風 12kt
視程: 10km
高度1500ftの雲は散在している
高度3000ftの千切れ雲あり
15日の 14時(UTC)から 15日の 16時(UTC)まで一時的に
視程: 4.8km
高度2000ftの千切れ雲あり
弱いにわか雪
15日の 1700時(UTC)から
西の風 8kt
視程: 10km
高度3500ftの千切れ雲あり
16日の 0000時(UTC)から
南西の風 6kt
視程: 10km
高度3000ftの雲は散在している
高度15000ftの曇り
16日の 0900時(UTC)から
変向風 3kt
視程: 10km
高度5000ftの曇り

TAF: KDTW 151351Z 1514/1618 27012KT P6SM SCT015 BKN030 TEMPO 1514/1516 3SM -SHSN BKN020 FM151700 26008KT P6SM BKN035 FM160000 23006KT P6SM SCT030 OVC150 FM160900 VRB03KT P6SM OVC050

4,000以上の空港の気象観測と天気予報(METAR報とTAF報)

利用可能な観測所は地図上に黄色い丸と赤い丸で示す。

丸の上にカーソルを重ねると観測所名を参照できる。

次にクリックすると気象観測と天気予報を参照できる。

マップの切り替え:黒色「×」印の緑ボタンをクリックして拡大、「-」印の緑ボタンをクリックして縮小、緑色の三角印をクリックして隣りの地図に切り替え


METAR-TAF: